• Join FlightAware (Why Join?)
  • Login
  • US Flag 
09:07AM EDT


 

Airport Tracker/Info


-or-


 

Live Flight TrackerFlight Track Log ✈ EJA929 ✈ 26-Jul-2013 ✈ KPNE - KSUN

Flight Track Log - Related Links

Times and Time Zones

All times are in EDT time to prevent confusion due to time zone crossing. See the EJA929 flight status page for this flight to view local times or setup timezone preferences in your user account.

Time Position Orientation Groundspeed Altitude Reporting Facility
EDT Latitude Longitude Course Direction KTS MPH feet Rate Location/Type
01:40PM 40.0500 -75.1000 252° West 217 250 2,900  Level Philadelphia TRACON
01:41PM 40.0167 -75.1667 237° Southwest 220 253 5,900 2,520 Climbing Philadelphia TRACON
01:42PM 40.0000 -75.2500 255° West 254 292 8,000 1,440 Climbing Philadelphia TRACON
01:44PM 39.9583 -75.4425 254° West 305 351 10,500 1,380 Climbing New York Center
01:45PM 39.9344 -75.5761 257° West 336 387 12,300 1,680 Climbing New York Center
01:46PM 39.9167 -75.7022 260° West 359 413 13,900 1,440 Climbing New York Center
01:47PM 39.9133 -75.8319 268° West 359 413 15,200 1,320 Climbing New York Center
01:48PM 39.9117 -75.9617 269° West 364 419 16,600 1,200 Climbing New York Center
01:49PM 39.9100 -76.0942 269° West 369 425 17,700 960 Climbing New York Center
01:50PM 39.9089 -76.2078 269° West 374 430 18,600 1,140 Climbing New York Center
01:51PM 39.9133 -76.3786 272° West 389 448 20,000 1,320 Climbing New York Center
01:52PM 39.9211 -76.5203 274° West 395 455 21,300 1,320 Climbing New York Center
01:53PM 39.9267 -76.6642 273° West 400 460 22,600 1,260 Climbing New York Center
01:54PM 39.9317 -76.8108 273° West 405 466 23,800 1,320 Climbing New York Center
01:55PM 39.9389 -76.9550 274° West 405 466 25,300 1,200 Climbing New York Center
01:56PM 39.9433 -77.1044 272° West 405 466 26,300 1,080 Climbing New York Center
01:57PM 39.9483 -77.2456 273° West 421 484 27,500 1,140 Climbing New York Center
02:00PM 39.9611 -77.5900 273° West 438 504 30,000 1,080 Climbing Cleveland Center
02:01PM 39.9672 -77.7494 273° West 438 504 31,100 1,200 Climbing Cleveland Center
02:02PM 39.9711 -77.9092 272° West 438 504 32,400 1,440 Climbing Cleveland Center
02:03PM 39.9767 -78.0661 273° West 438 504 34,000 780 Climbing Cleveland Center
02:04PM 39.9803 -78.2339 272° West 449 517 34,000  Level Cleveland Center
02:05PM 39.9822 -78.4292 271° West 476 548 34,000 840 Level Cleveland Center
02:06PM 39.9853 -78.6025 271° West 482 555 35,700 1,800 Climbing Cleveland Center
02:07PM 39.9903 -78.7703 272° West 477 549 37,600 1,740 Climbing Cleveland Center
02:08PM 40.0050 -78.9269 277° West 462 532 39,200 1,080 Climbing Cleveland Center
02:09PM 40.0489 -79.0778 291° West 438 504 39,800 360 Climbing Cleveland Center
02:10PM 40.0906 -79.2317 290° West 445 512 40,000 60 Climbing Cleveland Center
02:11PM 40.1381 -79.3881 292° West 457 526 40,000  Level Cleveland Center
02:12PM 40.1814 -79.5450 290° West 462 532 40,000  Level Cleveland Center
02:13PM 40.2264 -79.7019 291° West 467 537 40,000  Level Cleveland Center
02:14PM 40.2692 -79.8619 289° West 467 537 40,000  Level Cleveland Center
02:15PM 40.3097 -80.0222 288° West 467 537 40,000  Level Cleveland Center
02:16PM 40.3542 -80.1853 290° West 467 537 40,000  Level Cleveland Center
02:17PM 40.4006 -80.3486 290° West 473 544 40,000  Level Cleveland Center
02:18PM 40.4467 -80.5094 291° West 473 544 40,000  Level Cleveland Center
02:19PM 40.4819 -80.6378 290° West 473 544 40,000  Level Cleveland Center
02:20PM 40.5297 -80.8153 290° West 473 544 40,000  Level Cleveland Center
02:21PM 40.5731 -80.9794 289° West 473 544 40,000  Level Cleveland Center
02:22PM 40.6161 -81.1603 287° West 481 554 40,000  Level Cleveland Center
02:23PM 40.6589 -81.3275 289° West 481 554 40,000  Level Cleveland Center
02:24PM 40.6994 -81.4922 288° West 481 554 40,000  Level Cleveland Center
02:25PM 40.7397 -81.6408 290° West 481 554 40,000  Level Cleveland Center
02:26PM 40.7819 -81.8061 289° West 481 554 40,000  Level Cleveland Center
02:27PM 40.8236 -81.9714 288° West 481 554 40,000  Level Cleveland Center
02:28PM 40.8653 -82.1372 288° West 481 554 40,000  Level Cleveland Center
02:29PM 40.9106 -82.3222 288° West 486 559 40,000  Level Cleveland Center
02:30PM 40.9519 -82.4856 289° West 486 559 40,000  Level Cleveland Center
02:31PM 40.9928 -82.6519 288° West 481 554 40,000  Level Cleveland Center
02:32PM 41.0333 -82.8156 288° West 481 554 40,000  Level Cleveland Center
02:33PM 41.0717 -82.9822 287° West 481 554 40,000  Level Cleveland Center
02:34PM 41.1142 -83.1436 289° West 475 547 40,000  Level Cleveland Center
02:35PM 41.1500 -83.3050 286° West 463 533 40,000  Level Cleveland Center
02:36PM 41.1878 -83.4639 288° West 463 533 40,000  Level Cleveland Center
02:37PM 41.2253 -83.6256 287° West 463 533 40,000  Level Cleveland Center
02:38PM 41.2647 -83.7850 288° West 463 533 40,000  Level Cleveland Center
02:38PM 41.2953 -83.9039 289° West 459 528 40,000  Level Chicago Center
02:39PM 41.3325 -84.0650 287° West 458 527 40,000  Level Chicago Center
02:40PM 41.3694 -84.2269 287° West 458 527 40,000  Level Chicago Center
02:41PM 41.4064 -84.3881 287° West 455 524 40,000  Level Chicago Center
02:43PM 41.4428 -84.5494 287° West 457 526 40,000  Level Chicago Center
02:44PM 41.4789 -84.7111 287° West 456 525 40,000  Level Chicago Center
02:45PM 41.5222 -84.9019 287° West 451 519 40,000  Level Chicago Center
02:46PM 41.5581 -85.0617 287° West 451 519 40,000  Level Chicago Center
02:47PM 41.5928 -85.2206 286° West 448 516 40,000  Level Chicago Center
02:48PM 41.6264 -85.3750 286° West 451 519 40,000  Level Chicago Center
02:49PM 41.6619 -85.5369 286° West 452 520 40,000  Level Chicago Center
02:50PM 41.7003 -85.7200 286° West 452 520 40,000  Level Chicago Center
02:51PM 41.7342 -85.8769 286° West 443 510 40,000  Level Chicago Center
02:52PM 41.7681 -86.0339 286° West 442 509 40,000  Level Chicago Center
02:53PM 41.8019 -86.1922 286° West 443 510 40,000  Level Chicago Center
02:54PM 41.8394 -86.3817 285° West 440 506 40,000  Level Chicago Center
02:55PM 41.8725 -86.5378 286° West 439 505 40,000  Level Chicago Center
02:56PM 41.9069 -86.7019 286° West 439 505 40,000  Level Chicago Center
02:57PM 41.9389 -86.8581 285° West 439 505 40,000  Level Chicago Center
02:58PM 41.9708 -87.0142 285° West 438 504 40,000  Level Chicago Center
02:59PM 42.0011 -87.1700 285° West 438 504 40,000  Level Chicago Center
03:00PM 42.0375 -87.3558 285° West 435 501 40,000  Level Chicago Center
03:01PM 42.0675 -87.5097 285° West 431 496 40,000  Level Chicago Center
03:02PM 42.0983 -87.6669 285° West 439 505 40,000  Level Chicago Center
03:03PM 42.1275 -87.8228 284° West 436 502 40,000  Level Chicago Center
03:04PM 42.1639 -88.0106 285° West 437 503 40,000 240 Level Chicago Center
03:05PM 42.1939 -88.1669 285° West 435 501 40,600 720 Climbing Chicago Center
03:06PM 42.2228 -88.3181 285° West 424 488 41,500 840 Climbing Chicago Center
03:07PM 42.2494 -88.4678 284° West 417 480 42,400 720 Climbing Chicago Center
03:08PM 42.2772 -88.6106 285° West 404 465 43,000 240 Climbing Chicago Center
03:09PM 42.3108 -88.7886 284° West 410 472 43,000  Level Chicago Center
03:10PM 42.3367 -88.9375 283° West 419 482 43,000  Level Chicago Center
03:11PM 42.3658 -89.0928 284° West 423 487 43,000  Level Chicago Center
03:13PM 42.3939 -89.2511 284° West 428 493 43,000  Level Chicago Center
03:14PM 42.4272 -89.4367 284° West 433 498 43,000  Level Chicago Center
03:15PM 42.4550 -89.5983 283° West 437 503 43,000  Level Chicago Center
03:16PM 42.4842 -89.7589 284° West 439 505 43,000  Level Chicago Center
03:17PM 42.5108 -89.9144 283° West 433 498 43,000  Level Chicago Center
03:18PM 42.5408 -90.0769 284° West 443 510 43,000  Level Chicago Center
03:19PM 42.5669 -90.2339 283° West 435 501 43,000  Level Chicago Center
03:20PM 42.5989 -90.4225 283° West 432 497 43,000  Level Chicago Center
03:21PM 42.6258 -90.5800 283° West 432 497 43,000  Level Chicago Center
03:22PM 42.6508 -90.7372 282° West 431 496 43,000  Level Chicago Center
03:23PM 42.6756 -90.8961 282° West 429 494 43,000  Level Chicago Center
03:24PM 42.7081 -91.0847 283° West 436 502 43,000  Level Chicago Center
03:25PM 42.7333 -91.2450 282° West 438 504 43,000  Level Chicago Center
03:26PM 42.7581 -91.4047 282° West 437 503 43,000  Level Chicago Center
03:27PM 42.7836 -91.5750 282° West 434 499 43,000  Level Chicago Center
03:28PM 42.8086 -91.7367 282° West 435 501 43,000  Level Chicago Center
03:29PM 42.8347 -91.9050 282° West 444 511 43,000  Level Chicago Center
03:30PM 42.8592 -92.0650 282° West 439 505 43,000  Level Chicago Center
03:31PM 42.8833 -92.2267 282° West 441 507 43,000  Level Chicago Center
03:32PM 42.9131 -92.4217 282° West 442 509 43,000  Level Chicago Center
03:33PM 42.9325 -92.5544 281° West 445 512 43,000  Level Minneapolis Center
03:34PM 42.9564 -92.7194 281° West 446 513 43,000  Level Minneapolis Center
03:35PM 42.9806 -92.8836 281° West 447 514 43,000  Level Minneapolis Center
03:36PM 43.0042 -93.0472 281° West 443 510 43,000  Level Minneapolis Center
03:37PM 43.0267 -93.2086 281° West 439 505 43,000  Level Minneapolis Center
03:38PM 43.0497 -93.3714 281° West 439 505 43,000  Level Minneapolis Center
03:39PM 43.0764 -93.5656 281° West 438 504 43,000  Level Minneapolis Center
03:40PM 43.0989 -93.7281 281° West 440 506 43,000  Level Minneapolis Center
03:41PM 43.1219 -93.8908 281° West 438 504 43,000  Level Minneapolis Center
03:42PM 43.1475 -94.0864 280° West 439 505 43,000  Level Minneapolis Center
03:43PM 43.1703 -94.2497 281° West 439 505 43,000  Level Minneapolis Center
03:44PM 43.1900 -94.4042 280° West 443 510 43,000  Level Minneapolis Center
03:45PM 43.2153 -94.6022 280° West 441 507 43,000  Level Minneapolis Center
03:46PM 43.2372 -94.7647 281° West 436 502 43,000  Level Minneapolis Center
03:47PM 43.2578 -94.9333 280° West 443 510 43,000  Level Minneapolis Center
03:49PM 43.2783 -95.0986 280° West 442 509 43,000  Level Minneapolis Center
03:50PM 43.2994 -95.2667 280° West 444 511 43,000  Level Minneapolis Center
03:51PM 43.3200 -95.4328 280° West 443 510 43,000  Level Minneapolis Center
03:52PM 43.3442 -95.6378 279° West 449 517 43,000  Level Minneapolis Center
03:53PM 43.3644 -95.8064 279° West 448 516 43,000  Level Minneapolis Center
03:54PM 43.3839 -95.9783 279° West 452 520 43,000  Level Minneapolis Center
03:55PM 43.4036 -96.1494 279° West 453 521 43,000  Level Minneapolis Center
03:56PM 43.4228 -96.3200 279° West 451 519 43,000  Level Minneapolis Center
03:57PM 43.4425 -96.4894 279° West 449 517 43,000  Level Minneapolis Center
03:58PM 43.4642 -96.6936 278° West 448 516 43,000  Level Minneapolis Center
03:59PM 43.4831 -96.8647 279° West 450 518 43,000  Level Minneapolis Center
04:00PM 43.5003 -97.0347 278° West 449 517 43,000  Level Minneapolis Center
04:01PM 43.5197 -97.2036 279° West 447 514 43,000  Level Minneapolis Center
04:02PM 43.5403 -97.4083 278° West 448 516 43,000  Level Minneapolis Center
04:03PM 43.5583 -97.5775 278° West 447 514 43,000  Level Minneapolis Center
04:04PM 43.5778 -97.7817 278° West 448 516 43,000  Level Minneapolis Center
04:05PM 43.5950 -97.9508 278° West 446 513 43,000  Level Minneapolis Center
04:06PM 43.6117 -98.1197 278° West 445 512 43,000  Level Minneapolis Center
04:07PM 43.6278 -98.2883 278° West 444 511 43,000  Level Minneapolis Center
04:08PM 43.6431 -98.4581 277° West 446 513 43,000  Level Minneapolis Center
04:09PM 43.6586 -98.6269 277° West 445 512 43,000  Level Minneapolis Center
04:10PM 43.6764 -98.8167 277° West 446 513 43,000  Level Minneapolis Center
04:11PM 43.6883 -98.9539 277° West 448 516 43,000  Level Minneapolis Center
04:13PM 43.7069 -99.1575 277° West 445 512 43,000  Level Minneapolis Center
04:14PM 43.7211 -99.3281 277° West 446 513 43,000  Level Minneapolis Center
04:15PM 43.7375 -99.5317 276° West 445 512 43,000  Level Minneapolis Center
04:16PM 43.7525 -99.7025 277° West 445 512 43,000  Level Minneapolis Center
04:17PM 43.7667 -99.8719 277° West 444 511 43,000  Level Minneapolis Center
04:18PM 43.7792 -100.0422 276° West 444 511 43,000  Level Minneapolis Center
04:19PM 43.7936 -100.2142 277° West 445 512 43,000  Level Minneapolis Center
04:20PM 43.8067 -100.3861 276° West 447 514 43,000  Level Minneapolis Center
04:21PM 43.8222 -100.5922 276° West 447 514 43,000  Level Minneapolis Center
04:22PM 43.8342 -100.7658 276° West 450 518 43,000  Level Minneapolis Center
04:23PM 43.8456 -100.9350 275° West 447 514 43,000  Level Minneapolis Center
04:24PM 43.8567 -101.1050 275° West 445 512 43,000  Level Minneapolis Center
04:25PM 43.8658 -101.2431 275° West 445 512 43,000  Level Minneapolis Center
04:26PM 43.8794 -101.4494 275° West 446 513 43,000  Level Minneapolis Center
04:27PM 43.8933 -101.6525 275° West 444 511 43,000  Level Minneapolis Center
04:28PM 43.9036 -101.8233 275° West 444 511 43,000  Level Minneapolis Center
04:29PM 43.9142 -101.9925 275° West 442 509 43,000  Level Minneapolis Center
04:30PM 43.9267 -102.1978 275° West 443 510 43,000  Level Minneapolis Center
04:31PM 43.9369 -102.3686 275° West 444 511 43,000  Level Minneapolis Center
04:33PM 43.9508 -102.5756 275° West 449 517 43,000  Level Denver Center
04:34PM 43.9606 -102.7481 275° West 449 517 43,000  Level Denver Center
04:35PM 43.9731 -102.9469 275° West 447 514 43,000  Level Denver Center
04:36PM 43.9789 -103.1131 273° West 450 518 43,000  Level Denver Center
04:37PM 43.9819 -103.3042 271° West 448 516 43,000  Level Denver Center
04:38PM 43.9856 -103.4692 272° West 446 513 43,000  Level Denver Center
04:39PM 43.9881 -103.6614 271° West 447 514 43,000  Level Denver Center
04:40PM 43.9908 -103.8264 271° West 448 516 43,000  Level Denver Center
04:41PM 43.9939 -104.0189 271° West 448 516 43,000  Level Denver Center
04:42PM 43.9967 -104.1847 271° West 450 518 43,000  Level Denver Center
04:43PM 43.9981 -104.3767 271° West 447 514 43,000  Level Denver Center
04:44PM 44.0000 -104.5422 271° West 448 516 43,000  Level Denver Center
04:45PM 44.0019 -104.7372 271° West 453 521 43,000  Level Denver Center
04:46PM 44.0031 -104.9025 271° West 451 519 43,000  Level Denver Center
04:47PM 44.0039 -105.0969 270° West 453 521 43,000  Level Denver Center
04:48PM 44.0047 -105.2619 270° West 450 518 43,000  Level Denver Center
04:49PM 44.0058 -105.4567 271° West 452 520 43,000  Level Denver Center
04:50PM 44.0039 -105.6258 269° West 456 525 43,000  Level Denver Center
04:51PM 44.0047 -105.8208 270° West 455 524 43,000  Level Denver Center
04:52PM 44.0042 -105.9875 270° West 453 521 43,000  Level Denver Center
04:53PM 44.0031 -106.1856 270° West 457 526 43,000  Level Denver Center
04:54PM 44.0006 -106.3556 269° West 462 532 43,000  Level Denver Center
04:55PM 44.0036 -106.5531 271° West 458 527 43,000  Level Denver Center
04:56PM 44.0111 -106.7222 274° West 459 528 43,000  Level Denver Center
04:57PM 44.0172 -106.9011 273° West 459 528 43,000  Level Denver Center
04:58PM 44.0239 -107.0781 273° West 459 528 43,000  Level Denver Center
05:00PM 44.0292 -107.2567 272° West 463 533 43,000  Level Denver Center
05:01PM 44.0358 -107.4697 273° West 461 531 43,000  Level Denver Center
05:02PM 44.0417 -107.6478 273° West 462 532 43,000  Level Denver Center
05:03PM 44.0475 -107.8256 273° West 460 529 43,000  Level Denver Center
05:04PM 44.0528 -108.0747 272° West 458 527 43,000  Level Salt Lake Center
05:05PM 44.0569 -108.2528 272° West 459 528 43,000  Level Salt Lake Center
05:06PM 44.0622 -108.4300 272° West 459 528 43,000  Level Salt Lake Center
05:07PM 44.0658 -108.6075 272° West 460 529 43,000  Level Salt Lake Center
05:08PM 44.0717 -108.8228 272° West 463 533 43,000  Level Salt Lake Center
05:09PM 44.0750 -109.0025 272° West 465 535 43,000  Level Salt Lake Center
05:10PM 44.0783 -109.1833 272° West 466 536 43,000  Level Salt Lake Center
05:11PM 44.0806 -109.3611 271° West 464 534 43,000  Level Salt Lake Center
05:12PM 44.0833 -109.5361 271° West 461 531 43,000  Level Salt Lake Center
05:13PM 44.0864 -109.7364 271° West 464 534 43,000  Level Salt Lake Center
05:14PM 44.0886 -109.9078 271° West 463 533 43,000  Level Salt Lake Center
05:15PM 44.0906 -110.1075 271° West 463 533 43,000  Level Salt Lake Center
05:16PM 44.0917 -110.2792 271° West 462 532 43,000  Level Salt Lake Center
05:17PM 44.0933 -110.4783 271° West 461 531 43,000  Level Salt Lake Center
05:19PM 44.0928 -110.6489 270° West 460 529 43,000  Level Salt Lake Center
05:20PM 44.0936 -110.8469 270° West 459 528 43,000  Level Salt Lake Center
05:21PM 44.0939 -111.0186 270° West 460 529 43,000  Level Salt Lake Center
05:22PM 44.0936 -111.2200 270° West 465 535 43,000  Level Salt Lake Center
05:23PM 44.0933 -111.3928 270° West 465 535 43,000  Level Salt Lake Center
05:24PM 44.0928 -111.5653 270° West 464 534 43,000  Level Salt Lake Center
05:25PM 44.0925 -111.7675 270° West 465 535 43,000  Level Salt Lake Center
05:26PM 44.0911 -111.9408 269° West 467 537 43,000  Level Salt Lake Center
05:27PM 44.0886 -112.1428 269° West 466 536 43,000 -240 Level Salt Lake Center
05:28PM 44.0617 -112.3106 257° West 468 539 42,600 -1,080 Descending Salt Lake Center
05:29PM 44.0100 -112.5006 249° West 470 541 40,800 -1,800 Descending Salt Lake Center
05:30PM 43.9672 -112.6542 249° West 448 516 38,900 -2,280 Descending Salt Lake Center
05:31PM 43.9208 -112.8228 249° West 422 486 36,100 -2,640 Descending Salt Lake Center
05:32PM 43.8803 -112.9692 249° West 425 489 33,500 -2,460 Descending Salt Lake Center
05:33PM 43.8383 -113.1219 249° West 440 506 31,100 -2,580 Descending Salt Lake Center
05:34PM 43.7842 -113.3142 249° West 476 548 28,200 -2,760 Descending Salt Lake Center
05:35PM 43.7383 -113.4764 249° West 475 547 25,500 -2,820 Descending Salt Lake Center
05:36PM 43.6881 -113.6597 249° West 459 528 22,400 -3,120 Descending Salt Lake Center
05:37PM 43.6361 -113.8022 243° Southwest 439 505 19,100 -3,180 Descending Salt Lake Center
05:38PM 43.5456 -113.9297 226° Southwest 409 471 15,900 -2,040 Descending Salt Lake Center
05:39PM 43.4711 -114.0344 226° Southwest 396 456 14,900 -1,020 Descending Salt Lake Center
05:41PM 43.3528 -114.1862 229° Southwest  Level FlightAware Approximate
05:48PM 43.5000 -114.2833 North  Level FlightAware Approximate
05:49PM 43.5038 -114.2956 North  Level Estimated
05:50PM 43.5038 -114.2956 North  Level Estimated
05:51PM 43.5038 -114.2956 North  Level Estimated
05:52PM 43.5038 -114.2956 North  Level Estimated
05:53PM 43.5038 -114.2956 North  Level Estimated
05:54PM 43.5038 -114.2956 North  Level Estimated
05:55PM 43.5038 -114.2956 North  Level Estimated
05:56PM 43.5038 -114.2956 North  Level Estimated
05:57PM 43.5038 -114.2956 North  Level Estimated
05:58PM 43.5038 -114.2956 North  Level Estimated
05:59PM 43.5038 -114.2956 North  Level Estimated